首页
METAR-TAF:

METAR-TAF

机场 :

郑州新郑国际机场

郑州, 中华人民共和国

纬度: 34-43N, 经度: 113-39E, 海拔: 111米

当前天气观测

该预报发布于27分钟前的04:00 UTC
风速10节,风向西转西北,在西西北之间变化
温度 13°C
湿度 33%
气压 1024 hPa
能见度10公里或以上
1500米以下无云,无积雨云

METAR: ZHCC 180400Z 29005MPS 260V320 CAVOK 13/M03 Q1024 NOSIG

时间: 12:27 (04:27 UTC)

预报

该预报发布于9小时和19分钟前的19:08 UTC
预报有效从18日的 00点(UTC)到 18日的 24点(UTC)
风速6节,风向西
能見度: 4000

TAF: ZHCC 171908Z 1800/1824 27003MPS 4000 HZ NSC TX13/1807Z TN05/1822Z

超过4000个机场的气象观测和天气预报(METAR&TAF报告)。

可查询的气象台以黄色和红色小点在地图上表示。

将鼠标移到小点上方,可查看气象台名称。

然后点击查看天气观测和预报。

如需切换地图:点击带黑十字的绿色按钮放大地图;点击带横线的绿色按钮缩小地图;或者点击绿色箭头查看邻近地区的地图。


METAR-TAF: